createdAt,value
2023-02-11T00:01:49.541Z,39.17
2023-02-11T00:04:15.850Z,39.38
2023-02-11T00:06:42.142Z,39.61
2023-02-11T00:09:08.415Z,38.79
2023-02-11T00:11:34.670Z,40.35
2023-02-11T00:14:00.954Z,38.85
2023-02-11T00:16:27.310Z,38.72
2023-02-11T00:18:53.639Z,38.95
2023-02-11T00:21:19.986Z,38.38
2023-02-11T00:23:46.256Z,39.03
2023-02-11T00:26:12.546Z,38.46
2023-02-11T00:28:38.809Z,38.85
2023-02-11T00:31:05.276Z,39.26
2023-02-11T00:33:31.585Z,39.64
2023-02-11T00:35:57.839Z,39.14
2023-02-11T00:38:24.092Z,39.08
2023-02-11T00:40:50.364Z,39.11
2023-02-11T00:43:16.649Z,39.71
2023-02-11T00:45:42.926Z,38.66
2023-02-11T00:48:09.201Z,38.22
2023-02-11T00:50:35.497Z,38.52
2023-02-11T00:53:01.760Z,38.68
2023-02-11T00:55:28.037Z,39.17
2023-02-11T00:57:54.317Z,39.05
2023-02-11T01:00:20.589Z,38.68
2023-02-11T01:02:46.877Z,39.23
2023-02-11T01:05:13.274Z,38.75
2023-02-11T01:07:39.576Z,38.77
2023-02-11T01:10:05.840Z,38.31
2023-02-11T01:12:34.012Z,39.01
2023-02-11T01:15:02.232Z,38.60
2023-02-11T01:17:28.489Z,38.66
2023-02-11T01:19:54.775Z,37.32
2023-02-11T01:22:21.044Z,38.19
2023-02-11T01:24:47.330Z,37.99
2023-02-11T01:27:13.595Z,37.92
2023-02-11T01:29:39.867Z,37.84
2023-02-11T01:32:06.163Z,37.97
2023-02-11T01:34:32.454Z,37.80
2023-02-11T01:36:58.736Z,38.11
2023-02-11T01:39:25.011Z,38.30
2023-02-11T01:41:51.273Z,39.60
2023-02-11T01:44:17.545Z,38.87
2023-02-11T01:46:43.908Z,38.07
2023-02-11T01:49:10.286Z,37.64
2023-02-11T01:51:36.602Z,37.06
2023-02-11T01:54:02.858Z,37.53
2023-02-11T01:56:29.131Z,39.03
2023-02-11T01:58:55.422Z,38.88
2023-02-11T02:01:21.738Z,40.36
2023-02-11T02:03:48.066Z,40.96
2023-02-11T02:06:14.389Z,40.13
2023-02-11T02:08:40.709Z,39.68
2023-02-11T02:11:07.005Z,39.11
2023-02-11T02:13:33.261Z,40.86
2023-02-11T02:15:59.575Z,40.79
2023-02-11T02:18:25.869Z,40.12
2023-02-11T02:20:52.144Z,41.92
2023-02-11T02:23:18.404Z,42.14
2023-02-11T02:25:44.682Z,41.70
2023-02-11T02:28:10.964Z,42.25
2023-02-11T02:30:37.286Z,42.22
2023-02-11T02:33:16.777Z,42.92
2023-02-11T02:35:48.301Z,42.46
2023-02-11T02:38:14.750Z,43.43
2023-02-11T02:40:41.011Z,43.01
2023-02-11T02:43:07.282Z,43.07
2023-02-11T02:45:34.605Z,42.28
2023-02-11T02:48:00.867Z,43.20
2023-02-11T02:50:27.157Z,42.87
2023-02-11T02:52:53.437Z,43.65
2023-02-11T02:55:19.710Z,43.71
2023-02-11T02:57:45.973Z,45.31
2023-02-11T03:00:12.246Z,43.60
2023-02-11T03:02:38.512Z,43.51
2023-02-11T03:05:04.789Z,43.68
2023-02-11T03:07:31.077Z,45.21
2023-02-11T03:09:57.351Z,44.76
2023-02-11T03:12:23.653Z,45.41
2023-02-11T03:14:49.937Z,44.84
2023-02-11T03:17:16.216Z,45.51
2023-02-11T03:19:42.482Z,42.91
2023-02-11T03:22:08.767Z,43.06
2023-02-11T03:24:35.020Z,44.09
2023-02-11T03:27:01.302Z,42.88
2023-02-11T03:29:27.710Z,43.16
2023-02-11T03:31:54.057Z,43.68
2023-02-11T03:34:20.330Z,44.05
2023-02-11T03:36:46.608Z,44.49
2023-02-11T03:39:12.885Z,45.00
2023-02-11T03:41:39.180Z,43.86
2023-02-11T03:44:05.477Z,43.62
2023-02-11T03:46:31.743Z,44.42
2023-02-11T03:48:58.008Z,43.04
2023-02-11T03:51:24.388Z,43.74
2023-02-11T03:53:50.664Z,44.58
2023-02-11T03:56:16.963Z,43.88
2023-02-11T03:58:43.218Z,44.23
2023-02-11T04:01:09.539Z,43.53
2023-02-11T04:03:35.962Z,42.28
2023-02-11T04:06:02.282Z,45.07
2023-02-11T04:08:28.555Z,45.65
2023-02-11T04:10:54.830Z,43.63
2023-02-11T04:13:21.098Z,44.98
2023-02-11T04:15:49.006Z,45.24
2023-02-11T04:18:15.513Z,44.07
2023-02-11T04:20:41.779Z,44.63
2023-02-11T04:23:08.074Z,46.17
2023-02-11T04:25:34.452Z,46.27
2023-02-11T04:28:00.756Z,45.19
2023-02-11T04:30:27.064Z,44.77
2023-02-11T04:32:53.343Z,42.43
2023-02-11T04:35:19.620Z,43.34
2023-02-11T04:37:45.889Z,44.60
2023-02-11T04:40:12.158Z,45.94
2023-02-11T04:42:38.431Z,45.71
2023-02-11T04:45:04.707Z,46.22
2023-02-11T04:47:30.970Z,44.69
2023-02-11T04:49:57.240Z,45.79
2023-02-11T04:52:23.494Z,46.18
2023-02-11T04:54:49.768Z,46.68
2023-02-11T04:57:16.032Z,46.67
2023-02-11T04:59:42.320Z,47.16
2023-02-11T05:02:08.634Z,47.03
2023-02-11T05:04:34.997Z,47.64
2023-02-11T05:07:01.316Z,47.48
2023-02-11T05:09:27.592Z,46.86
2023-02-11T05:11:53.841Z,47.00
2023-02-11T05:14:20.101Z,46.65
2023-02-11T05:16:46.399Z,46.15
2023-02-11T05:19:12.769Z,45.88
2023-02-11T05:21:40.116Z,46.93
2023-02-11T05:24:08.618Z,47.76
2023-02-11T05:26:34.898Z,50.26
2023-02-11T05:29:01.155Z,51.02
2023-02-11T05:31:27.435Z,47.43
2023-02-11T05:33:53.738Z,46.60
2023-02-11T05:36:19.999Z,46.24
2023-02-11T05:38:46.277Z,45.76
2023-02-11T05:41:12.557Z,45.99
2023-02-11T05:43:38.837Z,46.93
2023-02-11T05:46:05.223Z,47.75
2023-02-11T05:48:31.571Z,48.09
2023-02-11T05:50:57.838Z,45.79
2023-02-11T05:53:24.211Z,47.10
2023-02-11T05:55:50.784Z,47.32
2023-02-11T05:58:17.253Z,46.68
2023-02-11T06:00:43.537Z,47.18
2023-02-11T06:03:09.820Z,48.24
2023-02-11T06:05:36.102Z,48.20
2023-02-11T06:08:02.395Z,48.51
2023-02-11T06:10:28.664Z,48.26
2023-02-11T06:12:54.952Z,50.03
2023-02-11T06:15:21.267Z,48.71
2023-02-11T06:17:47.548Z,48.02
2023-02-11T06:20:13.839Z,47.17
2023-02-11T06:22:40.117Z,46.05
2023-02-11T06:25:06.407Z,44.84
2023-02-11T06:27:32.702Z,45.70
2023-02-11T06:29:59.003Z,45.64
2023-02-11T06:32:43.010Z,45.57
2023-02-11T06:35:12.087Z,45.98
2023-02-11T06:37:38.639Z,46.21
2023-02-11T06:40:04.931Z,47.19
2023-02-11T06:42:31.211Z,46.78
2023-02-11T06:44:57.494Z,47.16
2023-02-11T06:47:23.810Z,47.62
2023-02-11T06:49:50.066Z,47.55
2023-02-11T06:52:16.343Z,46.80
2023-02-11T06:54:42.633Z,47.95
2023-02-11T06:57:08.908Z,48.70
2023-02-11T06:59:35.255Z,48.91
2023-02-11T07:02:01.635Z,48.37
2023-02-11T07:04:27.932Z,48.14
2023-02-11T07:06:54.248Z,46.38
2023-02-11T07:09:20.516Z,47.32
2023-02-11T07:11:46.801Z,47.65
2023-02-11T07:14:13.080Z,47.28
2023-02-11T07:16:39.445Z,47.93
2023-02-11T07:19:05.828Z,46.79
2023-02-11T07:21:32.123Z,48.18
2023-02-11T07:23:58.414Z,48.94
2023-02-11T07:26:24.657Z,50.03
2023-02-11T07:28:50.922Z,49.52
2023-02-11T07:31:17.289Z,48.90
2023-02-11T07:33:43.677Z,49.78
2023-02-11T07:36:09.952Z,49.92
2023-02-11T07:38:36.218Z,48.49
2023-02-11T07:41:02.521Z,50.83
2023-02-11T07:43:28.824Z,52.10
2023-02-11T07:45:55.090Z,49.83
2023-02-11T07:48:21.386Z,50.45
2023-02-11T07:50:47.646Z,49.84
2023-02-11T07:53:13.926Z,50.11
2023-02-11T07:55:40.178Z,50.75
2023-02-11T07:58:06.442Z,50.23
2023-02-11T08:00:32.733Z,50.05
2023-02-11T08:02:59.017Z,49.99
2023-02-11T08:05:25.304Z,50.20
2023-02-11T08:07:51.647Z,50.40
2023-02-11T08:10:17.900Z,48.42
2023-02-11T08:12:44.180Z,47.02
2023-02-11T08:15:10.465Z,48.47
2023-02-11T08:17:36.724Z,47.66
2023-02-11T08:20:02.998Z,46.66
2023-02-11T08:22:29.339Z,47.27
2023-02-11T08:24:55.619Z,45.98
2023-02-11T08:27:21.880Z,47.53
2023-02-11T08:29:48.157Z,47.56
2023-02-11T08:32:14.475Z,48.16
2023-02-11T08:34:40.810Z,48.59
2023-02-11T08:37:07.080Z,50.01
2023-02-11T08:39:33.338Z,49.75
2023-02-11T08:41:59.606Z,49.33
2023-02-11T08:44:25.877Z,50.95
2023-02-11T08:46:52.189Z,50.18
2023-02-11T08:49:18.450Z,48.66
2023-02-11T08:51:44.727Z,50.15
2023-02-11T08:54:11.013Z,50.26
2023-02-11T08:56:37.261Z,49.76
2023-02-11T08:59:03.572Z,51.11
2023-02-11T09:01:29.933Z,51.33
2023-02-11T09:03:56.241Z,51.98
2023-02-11T09:06:22.629Z,51.17
2023-02-11T09:08:48.927Z,51.17
2023-02-11T09:11:15.227Z,50.38
2023-02-11T09:13:41.507Z,50.98
2023-02-11T09:16:07.816Z,50.53
2023-02-11T09:57:28.636Z,46.13
2023-02-11T09:59:55.536Z,50.31
2023-02-11T10:02:21.962Z,49.67
2023-02-11T10:04:48.245Z,49.85
2023-02-11T10:07:14.495Z,49.24
2023-02-11T10:09:40.770Z,50.88
2023-02-11T10:12:07.030Z,52.02
2023-02-11T10:14:33.310Z,52.11
2023-02-11T10:16:59.621Z,52.07
2023-02-11T10:19:25.906Z,50.79
2023-02-11T10:21:52.287Z,50.01
2023-02-11T10:24:18.613Z,49.96
2023-02-11T10:26:44.881Z,50.70
2023-02-11T10:29:11.177Z,51.74
2023-02-11T10:31:37.596Z,50.40
2023-02-11T10:34:03.969Z,49.84
2023-02-11T10:36:30.240Z,49.91
2023-02-11T10:38:56.519Z,49.99
2023-02-11T10:41:22.797Z,50.72
2023-02-11T10:43:49.075Z,49.80
2023-02-11T10:46:15.412Z,49.76
2023-02-11T10:48:41.699Z,48.59
2023-02-11T10:51:07.985Z,49.84
2023-02-11T10:53:34.246Z,52.22
2023-02-11T10:56:00.594Z,52.00
2023-02-11T10:58:26.872Z,52.19
2023-02-11T11:00:53.602Z,53.11
2023-02-11T11:03:20.045Z,52.14
2023-02-11T11:05:46.339Z,51.13
2023-02-11T11:08:12.632Z,52.95
2023-02-11T11:10:38.930Z,53.60
2023-02-11T11:13:05.252Z,52.86
2023-02-11T11:15:31.547Z,51.33
2023-02-11T11:18:11.355Z,52.82
2023-02-11T11:20:44.173Z,54.08
2023-02-11T11:23:10.464Z,53.43
2023-02-11T11:25:36.780Z,52.77
2023-02-11T11:28:03.077Z,52.85
2023-02-11T11:30:29.376Z,52.98
2023-02-11T11:32:55.693Z,54.56
2023-02-11T11:35:21.995Z,54.24
2023-02-11T11:37:48.270Z,53.65
2023-02-11T11:40:14.564Z,53.17
2023-02-11T11:42:40.845Z,53.29
2023-02-11T11:45:07.145Z,51.68
2023-02-11T11:47:33.430Z,52.83
2023-02-11T11:49:59.710Z,52.55
2023-02-11T11:52:26.010Z,53.29
2023-02-11T11:54:52.307Z,52.46
2023-02-11T11:57:18.778Z,50.30
2023-02-11T11:59:45.098Z,51.37
2023-02-11T12:02:11.530Z,52.04
2023-02-11T12:04:37.848Z,50.37
2023-02-11T12:07:04.124Z,54.76
2023-02-11T12:09:30.490Z,50.11
2023-02-11T12:11:56.740Z,49.89
2023-02-11T12:14:23.018Z,50.38
2023-02-11T12:16:49.429Z,49.28
2023-02-11T12:19:15.779Z,48.30
2023-02-11T12:21:42.186Z,47.94
2023-02-11T12:24:08.447Z,47.42
2023-02-11T12:26:34.722Z,48.17
2023-02-11T12:29:01.049Z,47.12
2023-02-11T12:31:27.416Z,46.90
2023-02-11T12:33:53.750Z,48.46
2023-02-11T12:36:20.015Z,46.18
2023-02-11T12:38:46.342Z,46.63
2023-02-11T12:41:12.632Z,47.38
2023-02-11T12:43:38.885Z,46.30
2023-02-11T12:46:05.229Z,47.40
2023-02-11T12:48:33.044Z,48.27
2023-02-11T12:51:00.392Z,48.02
2023-02-11T12:53:26.717Z,46.51
2023-02-11T12:55:52.970Z,45.08
2023-02-11T12:58:19.233Z,45.80
2023-02-11T13:00:45.519Z,43.09
2023-02-11T13:03:11.832Z,44.87
2023-02-11T13:05:38.135Z,43.61
2023-02-11T13:08:04.421Z,45.59
2023-02-11T13:10:30.681Z,47.13
2023-02-11T13:12:56.969Z,46.46
2023-02-11T13:15:23.234Z,47.26
2023-02-11T13:17:49.518Z,46.85
2023-02-11T13:20:15.811Z,45.19
2023-02-11T13:22:42.112Z,42.59
2023-02-11T13:25:08.377Z,42.67
2023-02-11T13:27:34.659Z,42.51
2023-02-11T13:30:04.073Z,41.92
2023-02-11T13:32:30.558Z,38.40
2023-02-11T13:34:56.816Z,38.01
2023-02-11T13:37:23.107Z,37.66
2023-02-11T13:39:49.373Z,36.86
2023-02-11T13:42:15.656Z,38.40
2023-02-11T13:44:41.941Z,37.92
2023-02-11T13:47:08.213Z,36.50
2023-02-11T13:49:34.565Z,38.30
2023-02-11T13:52:00.885Z,35.93
2023-02-11T13:54:27.178Z,34.92
2023-02-11T13:56:53.476Z,37.84
2023-02-11T13:59:19.786Z,37.30
2023-02-11T14:01:46.088Z,35.69
2023-02-11T14:04:12.397Z,36.22
2023-02-11T14:06:38.803Z,36.85
2023-02-11T14:09:05.087Z,36.01
2023-02-11T14:11:31.389Z,37.21
2023-02-11T14:13:57.686Z,36.03
2023-02-11T14:16:36.886Z,36.83
2023-02-11T14:19:03.513Z,36.80
2023-02-11T14:21:29.813Z,36.13
2023-02-11T14:23:56.080Z,35.86
2023-02-11T14:26:22.465Z,37.11
2023-02-11T14:28:48.771Z,36.90
2023-02-11T14:31:15.123Z,37.74
2023-02-11T14:33:41.430Z,37.36
2023-02-11T14:36:07.704Z,36.61
2023-02-11T14:38:33.986Z,35.44
2023-02-11T14:41:00.294Z,36.10
2023-02-11T14:43:29.334Z,36.76
2023-02-11T14:45:55.959Z,35.88
2023-02-11T14:48:22.310Z,36.83
2023-02-11T14:50:48.744Z,37.35
2023-02-11T14:53:15.161Z,37.94
2023-02-11T14:55:41.452Z,36.10
2023-02-11T14:58:07.710Z,38.22
2023-02-11T15:00:33.990Z,36.58
2023-02-11T15:03:00.355Z,36.84
2023-02-11T15:05:26.662Z,35.96
2023-02-11T15:07:52.974Z,35.19
2023-02-11T15:10:19.303Z,34.78
2023-02-11T15:12:45.579Z,36.89
2023-02-11T15:15:11.878Z,35.26
2023-02-11T15:17:38.205Z,35.32
2023-02-11T15:20:04.515Z,34.37
2023-02-11T15:22:30.830Z,34.94
2023-02-11T15:24:57.102Z,35.14
2023-02-11T15:27:23.392Z,36.16
2023-02-11T15:29:49.703Z,33.48
2023-02-11T15:32:16.148Z,34.83
2023-02-11T15:34:42.634Z,34.03
2023-02-11T15:37:08.992Z,34.10
2023-02-11T15:39:35.392Z,35.88
2023-02-11T15:42:01.688Z,34.74
2023-02-11T15:44:27.971Z,34.81
2023-02-11T15:46:54.268Z,34.71
2023-02-11T15:49:20.576Z,37.18
2023-02-11T15:51:46.842Z,36.32
2023-02-11T15:54:13.170Z,35.29
2023-02-11T15:56:39.481Z,37.62
2023-02-11T15:59:05.775Z,38.59
2023-02-11T16:01:33.900Z,37.33
2023-02-11T16:04:00.482Z,37.15
2023-02-11T16:06:26.811Z,36.76
2023-02-11T16:08:53.168Z,37.71
2023-02-11T16:11:19.438Z,38.52
2023-02-11T16:13:45.722Z,38.07
2023-02-11T16:16:12.024Z,38.77
2023-02-11T16:18:39.783Z,39.62
2023-02-11T16:21:06.488Z,39.83
2023-02-11T16:23:32.793Z,39.63
2023-02-11T16:25:59.053Z,38.53
2023-02-11T16:28:25.399Z,39.73
2023-02-11T16:30:52.010Z,38.05
2023-02-11T16:33:18.503Z,38.17
2023-02-11T16:35:44.765Z,38.14
2023-02-11T16:38:11.167Z,37.57
2023-02-11T16:40:37.446Z,38.08
2023-02-11T16:43:03.722Z,38.54
2023-02-11T16:45:30.024Z,40.21
2023-02-11T16:47:56.310Z,40.98
2023-02-11T16:50:22.567Z,40.58
2023-02-11T16:52:48.893Z,40.71
2023-02-11T16:55:15.391Z,40.96
2023-02-11T16:57:41.716Z,41.45
2023-02-11T17:00:07.984Z,41.50
2023-02-11T17:02:34.296Z,42.54
2023-02-11T17:05:00.568Z,41.27
2023-02-11T17:07:26.852Z,41.32
2023-02-11T17:09:53.154Z,41.63
2023-02-11T17:12:19.446Z,40.15
2023-02-11T17:14:45.714Z,40.60
2023-02-11T17:17:12.040Z,41.28
2023-02-11T17:19:38.333Z,41.77
2023-02-11T17:22:04.598Z,40.73
2023-02-11T17:24:30.894Z,41.11
2023-02-11T17:26:57.173Z,42.71
2023-02-11T17:29:23.460Z,40.40
2023-02-11T17:31:49.812Z,38.62
2023-02-11T17:34:16.102Z,40.41
2023-02-11T17:36:42.357Z,39.91
2023-02-11T17:39:08.683Z,38.87
2023-02-11T17:41:34.997Z,38.10
2023-02-11T17:44:01.262Z,36.97
2023-02-11T17:46:27.592Z,36.81
2023-02-11T17:48:53.896Z,35.23
2023-02-11T17:51:20.208Z,33.61
2023-02-11T17:53:46.474Z,31.43
2023-02-11T17:56:12.737Z,31.12
2023-02-11T17:58:39.032Z,30.60
2023-02-11T18:01:05.357Z,30.79
2023-02-11T18:03:31.648Z,30.38
2023-02-11T18:05:57.965Z,31.25
2023-02-11T18:08:24.250Z,32.07
2023-02-11T18:10:50.513Z,31.66
2023-02-11T18:13:16.787Z,31.59
2023-02-11T18:15:43.053Z,32.25
2023-02-11T18:18:09.350Z,30.87
2023-02-11T18:20:35.610Z,29.84
2023-02-11T18:23:01.909Z,31.21
2023-02-11T18:25:28.171Z,31.10
2023-02-11T18:27:54.435Z,30.79
2023-02-11T18:30:20.699Z,30.33
2023-02-11T18:32:46.989Z,32.68
2023-02-11T18:35:14.924Z,32.42
2023-02-11T18:37:41.380Z,32.86
2023-02-11T18:40:07.656Z,34.41
2023-02-11T18:42:33.944Z,37.51
2023-02-11T18:45:00.292Z,40.08
2023-02-11T18:47:26.589Z,42.37
2023-02-11T18:49:52.867Z,44.17
2023-02-11T18:52:19.151Z,45.51
2023-02-11T18:54:45.430Z,45.60
2023-02-11T18:57:11.713Z,48.88
2023-02-11T18:59:37.981Z,48.51
2023-02-11T19:02:04.250Z,48.67
2023-02-11T19:04:30.590Z,48.06
2023-02-11T19:06:56.918Z,47.32
2023-02-11T19:09:23.209Z,48.18
2023-02-11T19:11:49.526Z,47.82
2023-02-11T19:14:15.801Z,46.89
2023-02-11T19:16:42.152Z,49.03
2023-02-11T19:19:08.424Z,51.04
2023-02-11T19:21:34.700Z,50.58
2023-02-11T19:24:01.014Z,50.84
2023-02-11T19:26:27.288Z,51.10
2023-02-11T19:28:53.589Z,50.56
2023-02-11T19:31:19.924Z,51.03
2023-02-11T19:33:46.201Z,50.56
2023-02-11T19:36:12.483Z,47.42
2023-02-11T19:38:38.756Z,48.37
2023-02-11T19:41:05.057Z,48.53
2023-02-11T19:43:31.340Z,50.89
2023-02-11T19:45:57.666Z,50.88
2023-02-11T19:48:24.030Z,51.70
2023-02-11T19:50:50.318Z,51.05
2023-02-11T19:53:16.590Z,54.94
2023-02-11T19:55:42.843Z,54.12
2023-02-11T19:58:09.131Z,52.63
2023-02-11T20:00:35.420Z,52.74
2023-02-11T20:03:01.785Z,49.83
2023-02-11T20:05:28.080Z,50.05
2023-02-11T20:07:54.339Z,50.41
2023-02-11T20:10:20.609Z,52.19
2023-02-11T20:12:46.896Z,52.07
2023-02-11T20:15:13.161Z,53.80
2023-02-11T20:17:39.409Z,53.61
2023-02-11T20:20:05.686Z,54.59
2023-02-11T20:22:31.970Z,54.56
2023-02-11T20:24:58.231Z,55.59
2023-02-11T20:27:24.526Z,55.92
2023-02-11T20:29:50.814Z,56.28
2023-02-11T20:32:17.108Z,55.30
2023-02-11T20:34:43.503Z,53.98
2023-02-11T20:37:09.767Z,55.27
2023-02-11T20:39:36.044Z,55.90
2023-02-11T20:42:02.339Z,57.04
2023-02-11T20:44:28.607Z,57.86
2023-02-11T20:46:55.008Z,58.47
2023-02-11T20:49:21.295Z,57.96
2023-02-11T20:51:47.562Z,57.00
2023-02-11T20:54:13.844Z,57.72
2023-02-11T20:56:40.129Z,54.41
2023-02-11T20:59:06.411Z,54.93
2023-02-11T21:01:32.703Z,56.27
2023-02-11T21:03:59.007Z,55.72
2023-02-11T21:06:25.285Z,58.30
2023-02-11T21:08:51.558Z,57.28
2023-02-11T21:11:17.839Z,57.35
2023-02-11T21:13:44.135Z,56.11
2023-02-11T21:16:10.549Z,56.18
2023-02-11T21:18:36.900Z,55.76
2023-02-11T21:21:06.039Z,56.75
2023-02-11T21:23:33.213Z,57.13
2023-02-11T21:25:59.490Z,56.82
2023-02-11T21:28:25.836Z,56.73
2023-02-11T21:30:52.344Z,58.02
2023-02-11T21:33:18.719Z,59.25
2023-02-11T21:35:45.017Z,57.19
2023-02-11T21:38:11.329Z,56.38
2023-02-11T21:40:37.600Z,55.85
2023-02-11T21:43:03.882Z,56.60
2023-02-11T21:45:32.303Z,54.49
2023-02-11T21:47:58.728Z,54.14
2023-02-11T21:50:25.001Z,55.16
2023-02-11T21:52:51.292Z,54.36
2023-02-11T21:55:17.558Z,55.88
2023-02-11T21:57:43.838Z,54.61
2023-02-11T22:00:10.128Z,54.96
2023-02-11T22:02:36.454Z,53.82
2023-02-11T22:05:02.824Z,54.26
2023-02-11T22:07:29.221Z,53.86
2023-02-11T22:09:55.503Z,53.47
2023-02-11T22:12:21.783Z,52.78
2023-02-11T22:14:48.083Z,53.60
2023-02-11T22:17:14.392Z,52.77
2023-02-11T22:19:40.734Z,53.31
2023-02-11T22:22:07.030Z,52.18
2023-02-11T22:24:33.297Z,52.08
2023-02-11T22:26:59.565Z,52.03
2023-02-11T22:29:25.833Z,53.67
2023-02-11T22:31:52.116Z,52.11
2023-02-11T22:34:18.400Z,51.44
2023-02-11T22:36:44.688Z,50.76
2023-02-11T22:39:10.969Z,50.56
2023-02-11T22:41:37.255Z,50.05
2023-02-11T22:44:03.555Z,47.43
2023-02-11T22:46:29.825Z,47.61
2023-02-11T22:48:56.115Z,47.72
2023-02-11T22:51:22.389Z,47.79
2023-02-11T22:53:48.681Z,48.17
2023-02-11T22:56:15.909Z,47.87
2023-02-11T22:58:42.373Z,46.32
2023-02-11T23:01:08.628Z,45.96
2023-02-11T23:03:34.897Z,46.38
2023-02-11T23:06:01.191Z,45.18
2023-02-11T23:08:27.465Z,46.15
2023-02-11T23:10:53.823Z,46.40
2023-02-11T23:13:20.159Z,47.13
2023-02-11T23:15:46.415Z,44.57
2023-02-11T23:18:12.682Z,44.98
2023-02-11T23:20:38.949Z,45.02
2023-02-11T23:23:05.264Z,43.78
2023-02-11T23:25:31.534Z,42.83
2023-02-11T23:27:57.843Z,41.19
2023-02-11T23:30:24.145Z,40.95
2023-02-11T23:32:50.417Z,41.08
2023-02-11T23:35:16.674Z,40.33
2023-02-11T23:37:43.013Z,40.04
2023-02-11T23:40:09.335Z,40.67
2023-02-11T23:42:35.630Z,40.09
2023-02-11T23:45:01.903Z,39.19
2023-02-11T23:47:28.282Z,39.38
2023-02-11T23:49:54.569Z,38.10
2023-02-11T23:52:20.832Z,37.57
2023-02-11T23:54:47.117Z,37.21
2023-02-11T23:57:13.377Z,37.39
2023-02-11T23:59:39.633Z,37.21
